Pagina principale
METAR-TAF:

METAR-TAF

Aeroporti :

Aeroporto di Cervia-Pisignano

Cervia, Italia

latitudine: 44-13N, longitudine: 012-18E, altezza: 6 m

Osservazione

Il bollettino è stato emesso 1 ora e 21 minuti fa, alle 15:55 UTC
Vento 10 kt da est
Temperature 22°C
Umidità 60%
Pressione 1000 hPa
Visibilità 10 km o più
Poco nuvoloso ad un'altezza di 4000 ft

METAR: LIPC 051555Z 09010KT 9999 FEW040 22/14 Q1000 RMK SCT SCT200 VIS MIN 9999 WIND THR11 10008KT WIND THR29 10009KT BLU

Ora: 19:16 (17:16 UTC)

Previsione

Il bollettino è stato emesso 3 ore e 16 minuti fa, alle 14:00 UTC
Previsione valida dal 05 alle 15 UTC al 05 alle 24 UTC
Vento 8 kt da ovest/nord-ovest
Visibilità 10 km o più
Poco nuvoloso ad un'altezza di 3000 ft

TAF: LIPC 051400Z 0515/0524 30008KT 9999 FEW030

Osservazioni e previsioni meteorologiche di più di 4000 aeroporti (messaggi METAR e TAF).

Le stazioni disponibili sono rappresentate dai dischi gialli e rossi sulla carta.

Puntare il mouse per vedere il nome della stazione.

Clicca sopra per visualizzare le osservazioni e previsioni meteorologiche.

Per cambiare la mappa : fare clic sui pulsanti verdi con una croce nera per ingrandire, il pulsante verde con un trattino per diminuire, o sulla freccia verde per le mappe adiacenti.


METAR-TAF: